Aviation Digital Data Service (ADDS)

Output produced by METARs form (0110 UTC 24 May 2022)
found at http://www.aviationweather.gov/metar/data/
 
FSIA 240100Z 17007KT 120V220 9999 FEW022 27/23 Q1008 NOSIG
TAF FSIA 232301Z 2400/2424 15011KT 9999 SCT022